sensor_id;sensor_type;location;lat;lon;timestamp;P1;durP1;ratioP1;P2;durP2;ratioP2
10461;SDS011;5278;42.656;23.374;2023-07-20T00:01:53;5.50;;;2.60;;
10461;SDS011;5278;42.656;23.374;2023-07-20T00:04:21;12.47;;;4.10;;
10461;SDS011;5278;42.656;23.374;2023-07-20T00:06:48;8.23;;;3.40;;
10461;SDS011;5278;42.656;23.374;2023-07-20T00:09:15;7.43;;;3.13;;
10461;SDS011;5278;42.656;23.374;2023-07-20T00:11:47;4.03;;;2.30;;
10461;SDS011;5278;42.656;23.374;2023-07-20T00:14:16;5.97;;;2.73;;
10461;SDS011;5278;42.656;23.374;2023-07-20T00:16:44;4.23;;;2.17;;
10461;SDS011;5278;42.656;23.374;2023-07-20T00:19:14;6.37;;;3.17;;
10461;SDS011;5278;42.656;23.374;2023-07-20T00:21:41;7.03;;;3.27;;
10461;SDS011;5278;42.656;23.374;2023-07-20T00:24:08;5.30;;;2.73;;
10461;SDS011;5278;42.656;23.374;2023-07-20T00:26:35;8.43;;;3.03;;
10461;SDS011;5278;42.656;23.374;2023-07-20T00:29:02;9.60;;;3.40;;
10461;SDS011;5278;42.656;23.374;2023-07-20T00:31:30;10.10;;;3.77;;
10461;SDS011;5278;42.656;23.374;2023-07-20T00:33:58;6.57;;;3.43;;
10461;SDS011;5278;42.656;23.374;2023-07-20T00:36:25;8.20;;;3.27;;
10461;SDS011;5278;42.656;23.374;2023-07-20T00:38:52;8.43;;;3.37;;
10461;SDS011;5278;42.656;23.374;2023-07-20T00:41:19;3.40;;;2.43;;
10461;SDS011;5278;42.656;23.374;2023-07-20T00:43:47;8.03;;;3.00;;
10461;SDS011;5278;42.656;23.374;2023-07-20T00:46:14;5.40;;;2.80;;
10461;SDS011;5278;42.656;23.374;2023-07-20T00:48:41;6.53;;;3.03;;
10461;SDS011;5278;42.656;23.374;2023-07-20T00:51:10;6.57;;;2.93;;
10461;SDS011;5278;42.656;23.374;2023-07-20T00:53:37;5.17;;;2.70;;
10461;SDS011;5278;42.656;23.374;2023-07-20T00:56:05;5.47;;;2.87;;
10461;SDS011;5278;42.656;23.374;2023-07-20T00:58:34;5.17;;;2.70;;
10461;SDS011;5278;42.656;23.374;2023-07-20T01:01:01;7.17;;;3.47;;
10461;SDS011;5278;42.656;23.374;2023-07-20T01:03:28;8.07;;;3.50;;
10461;SDS011;5278;42.656;23.374;2023-07-20T01:05:57;5.33;;;2.80;;
10461;SDS011;5278;42.656;23.374;2023-07-20T01:08:37;7.53;;;3.13;;
10461;SDS011;5278;42.656;23.374;2023-07-20T01:11:12;4.47;;;2.87;;
10461;SDS011;5278;42.656;23.374;2023-07-20T01:13:44;4.73;;;2.80;;
10461;SDS011;5278;42.656;23.374;2023-07-20T01:16:11;6.03;;;3.17;;
10461;SDS011;5278;42.656;23.374;2023-07-20T01:18:38;4.03;;;2.63;;
10461;SDS011;5278;42.656;23.374;2023-07-20T01:21:06;7.53;;;3.33;;
10461;SDS011;5278;42.656;23.374;2023-07-20T01:23:44;5.40;;;2.70;;
10461;SDS011;5278;42.656;23.374;2023-07-20T01:26:50;7.27;;;2.77;;
10461;SDS011;5278;42.656;23.374;2023-07-20T01:29:32;6.17;;;2.80;;
10461;SDS011;5278;42.656;23.374;2023-07-20T01:32:20;5.07;;;3.43;;
10461;SDS011;5278;42.656;23.374;2023-07-20T01:34:51;9.03;;;3.27;;
10461;SDS011;5278;42.656;23.374;2023-07-20T01:37:21;6.83;;;3.00;;
10461;SDS011;5278;42.656;23.374;2023-07-20T01:39:52;7.17;;;2.73;;
10461;SDS011;5278;42.656;23.374;2023-07-20T01:42:20;6.50;;;3.00;;
10461;SDS011;5278;42.656;23.374;2023-07-20T01:44:50;4.67;;;3.00;;
10461;SDS011;5278;42.656;23.374;2023-07-20T01:47:17;4.70;;;2.57;;
10461;SDS011;5278;42.656;23.374;2023-07-20T01:49:46;5.87;;;2.77;;
10461;SDS011;5278;42.656;23.374;2023-07-20T01:52:13;5.43;;;2.80;;
10461;SDS011;5278;42.656;23.374;2023-07-20T01:54:40;8.30;;;2.80;;
10461;SDS011;5278;42.656;23.374;2023-07-20T01:57:07;5.67;;;3.10;;
10461;SDS011;5278;42.656;23.374;2023-07-20T01:59:34;7.17;;;3.10;;
10461;SDS011;5278;42.656;23.374;2023-07-20T02:02:01;4.83;;;2.20;;
10461;SDS011;5278;42.656;23.374;2023-07-20T02:04:28;3.70;;;2.30;;
10461;SDS011;5278;42.656;23.374;2023-07-20T02:06:56;8.13;;;3.17;;
10461;SDS011;5278;42.656;23.374;2023-07-20T02:09:23;5.90;;;2.60;;
10461;SDS011;5278;42.656;23.374;2023-07-20T02:11:49;6.47;;;2.83;;
10461;SDS011;5278;42.656;23.374;2023-07-20T02:14:16;6.10;;;3.20;;
10461;SDS011;5278;42.656;23.374;2023-07-20T02:16:43;7.00;;;2.90;;
10461;SDS011;5278;42.656;23.374;2023-07-20T02:19:10;7.50;;;2.87;;
10461;SDS011;5278;42.656;23.374;2023-07-20T02:21:37;5.80;;;3.07;;
10461;SDS011;5278;42.656;23.374;2023-07-20T02:24:06;6.60;;;2.80;;
10461;SDS011;5278;42.656;23.374;2023-07-20T02:26:33;6.00;;;2.90;;
10461;SDS011;5278;42.656;23.374;2023-07-20T02:29:00;4.80;;;2.83;;
10461;SDS011;5278;42.656;23.374;2023-07-20T02:31:29;5.30;;;3.20;;
10461;SDS011;5278;42.656;23.374;2023-07-20T02:33:56;5.37;;;2.80;;
10461;SDS011;5278;42.656;23.374;2023-07-20T02:36:23;8.40;;;3.90;;
10461;SDS011;5278;42.656;23.374;2023-07-20T02:38:50;6.23;;;3.17;;
10461;SDS011;5278;42.656;23.374;2023-07-20T02:41:19;3.80;;;2.50;;
10461;SDS011;5278;42.656;23.374;2023-07-20T02:43:46;4.23;;;2.50;;
10461;SDS011;5278;42.656;23.374;2023-07-20T02:46:13;6.97;;;2.97;;
10461;SDS011;5278;42.656;23.374;2023-07-20T02:48:40;6.57;;;3.23;;
10461;SDS011;5278;42.656;23.374;2023-07-20T02:51:07;5.20;;;2.53;;
10461;SDS011;5278;42.656;23.374;2023-07-20T02:53:34;5.17;;;2.93;;
10461;SDS011;5278;42.656;23.374;2023-07-20T02:56:01;6.13;;;2.87;;
10461;SDS011;5278;42.656;23.374;2023-07-20T02:58:30;8.13;;;3.23;;
10461;SDS011;5278;42.656;23.374;2023-07-20T03:00:57;7.53;;;3.10;;
10461;SDS011;5278;42.656;23.374;2023-07-20T03:03:24;5.30;;;2.83;;
10461;SDS011;5278;42.656;23.374;2023-07-20T03:05:50;6.67;;;3.00;;
10461;SDS011;5278;42.656;23.374;2023-07-20T03:08:19;6.10;;;3.07;;
10461;SDS011;5278;42.656;23.374;2023-07-20T03:10:46;7.50;;;3.10;;
10461;SDS011;5278;42.656;23.374;2023-07-20T03:13:13;8.43;;;3.40;;
10461;SDS011;5278;42.656;23.374;2023-07-20T03:15:42;6.70;;;3.13;;
10461;SDS011;5278;42.656;23.374;2023-07-20T03:18:09;8.97;;;3.73;;
10461;SDS011;5278;42.656;23.374;2023-07-20T03:20:36;9.00;;;3.63;;
10461;SDS011;5278;42.656;23.374;2023-07-20T03:23:04;7.57;;;3.20;;
10461;SDS011;5278;42.656;23.374;2023-07-20T03:25:31;5.33;;;3.03;;
10461;SDS011;5278;42.656;23.374;2023-07-20T03:27:58;5.00;;;3.10;;
10461;SDS011;5278;42.656;23.374;2023-07-20T03:30:25;7.30;;;3.20;;
10461;SDS011;5278;42.656;23.374;2023-07-20T03:32:54;7.10;;;3.50;;
10461;SDS011;5278;42.656;23.374;2023-07-20T03:35:21;8.87;;;3.33;;
10461;SDS011;5278;42.656;23.374;2023-07-20T03:37:48;12.60;;;3.20;;
10461;SDS011;5278;42.656;23.374;2023-07-20T03:40:16;4.33;;;2.93;;
10461;SDS011;5278;42.656;23.374;2023-07-20T03:42:42;8.53;;;3.47;;
10461;SDS011;5278;42.656;23.374;2023-07-20T03:45:10;8.73;;;3.40;;
10461;SDS011;5278;42.656;23.374;2023-07-20T03:47:37;4.93;;;3.57;;
10461;SDS011;5278;42.656;23.374;2023-07-20T03:50:06;6.27;;;3.17;;
10461;SDS011;5278;42.656;23.374;2023-07-20T03:52:35;7.23;;;3.30;;
10461;SDS011;5278;42.656;23.374;2023-07-20T03:55:02;7.87;;;3.27;;
10461;SDS011;5278;42.656;23.374;2023-07-20T03:57:29;6.70;;;3.23;;
10461;SDS011;5278;42.656;23.374;2023-07-20T03:59:58;6.23;;;3.70;;
10461;SDS011;5278;42.656;23.374;2023-07-20T04:02:25;9.60;;;3.30;;
10461;SDS011;5278;42.656;23.374;2023-07-20T04:04:52;9.70;;;4.17;;
10461;SDS011;5278;42.656;23.374;2023-07-20T04:07:21;10.57;;;4.37;;
10461;SDS011;5278;42.656;23.374;2023-07-20T04:09:48;7.33;;;4.67;;
10461;SDS011;5278;42.656;23.374;2023-07-20T04:12:14;7.23;;;3.60;;
10461;SDS011;5278;42.656;23.374;2023-07-20T04:14:42;4.53;;;3.30;;
10461;SDS011;5278;42.656;23.374;2023-07-20T04:17:08;8.67;;;4.10;;
10461;SDS011;5278;42.656;23.374;2023-07-20T04:19:38;10.80;;;4.57;;
10461;SDS011;5278;42.656;23.374;2023-07-20T04:22:05;7.73;;;3.90;;
10461;SDS011;5278;42.656;23.374;2023-07-20T04:24:33;11.27;;;5.50;;
10461;SDS011;5278;42.656;23.374;2023-07-20T04:27:00;13.43;;;5.80;;
10461;SDS011;5278;42.656;23.374;2023-07-20T04:29:26;13.13;;;5.53;;
10461;SDS011;5278;42.656;23.374;2023-07-20T04:31:53;14.60;;;7.67;;
10461;SDS011;5278;42.656;23.374;2023-07-20T04:34:19;8.57;;;4.83;;
10461;SDS011;5278;42.656;23.374;2023-07-20T04:36:46;12.90;;;6.30;;
10461;SDS011;5278;42.656;23.374;2023-07-20T04:39:13;7.20;;;4.83;;
10461;SDS011;5278;42.656;23.374;2023-07-20T04:41:42;12.33;;;3.63;;
10461;SDS011;5278;42.656;23.374;2023-07-20T04:44:08;10.83;;;4.47;;
10461;SDS011;5278;42.656;23.374;2023-07-20T04:46:35;8.33;;;3.93;;
10461;SDS011;5278;42.656;23.374;2023-07-20T04:49:02;12.33;;;4.70;;
10461;SDS011;5278;42.656;23.374;2023-07-20T04:51:30;9.27;;;4.80;;
10461;SDS011;5278;42.656;23.374;2023-07-20T04:53:57;9.17;;;4.53;;
10461;SDS011;5278;42.656;23.374;2023-07-20T04:56:24;6.87;;;4.50;;
10461;SDS011;5278;42.656;23.374;2023-07-20T04:58:54;8.97;;;5.23;;
10461;SDS011;5278;42.656;23.374;2023-07-20T05:01:21;10.37;;;5.20;;
10461;SDS011;5278;42.656;23.374;2023-07-20T05:03:48;5.53;;;3.70;;
10461;SDS011;5278;42.656;23.374;2023-07-20T05:06:15;6.57;;;4.07;;
10461;SDS011;5278;42.656;23.374;2023-07-20T05:08:42;9.47;;;4.77;;
10461;SDS011;5278;42.656;23.374;2023-07-20T05:11:09;9.47;;;4.73;;
10461;SDS011;5278;42.656;23.374;2023-07-20T05:13:37;10.77;;;6.27;;
10461;SDS011;5278;42.656;23.374;2023-07-20T05:16:05;9.30;;;4.33;;
10461;SDS011;5278;42.656;23.374;2023-07-20T05:18:33;7.43;;;3.83;;
10461;SDS011;5278;42.656;23.374;2023-07-20T05:21:00;7.77;;;4.03;;
10461;SDS011;5278;42.656;23.374;2023-07-20T05:23:27;7.27;;;3.90;;
10461;SDS011;5278;42.656;23.374;2023-07-20T05:25:54;7.10;;;4.03;;
10461;SDS011;5278;42.656;23.374;2023-07-20T05:28:22;8.17;;;4.17;;
10461;SDS011;5278;42.656;23.374;2023-07-20T05:30:49;7.43;;;3.57;;
10461;SDS011;5278;42.656;23.374;2023-07-20T05:33:18;5.90;;;3.47;;
10461;SDS011;5278;42.656;23.374;2023-07-20T05:35:45;6.00;;;3.03;;
10461;SDS011;5278;42.656;23.374;2023-07-20T05:38:12;8.23;;;3.57;;
10461;SDS011;5278;42.656;23.374;2023-07-20T05:40:40;4.77;;;3.47;;
10461;SDS011;5278;42.656;23.374;2023-07-20T05:43:08;10.17;;;3.87;;
10461;SDS011;5278;42.656;23.374;2023-07-20T05:45:35;5.47;;;2.80;;
10461;SDS011;5278;42.656;23.374;2023-07-20T05:48:01;5.90;;;3.40;;
10461;SDS011;5278;42.656;23.374;2023-07-20T05:50:30;12.83;;;6.07;;
10461;SDS011;5278;42.656;23.374;2023-07-20T05:52:56;7.77;;;4.40;;
10461;SDS011;5278;42.656;23.374;2023-07-20T05:55:23;8.38;;;3.95;;
10461;SDS011;5278;42.656;23.374;2023-07-20T05:57:50;16.75;;;4.63;;
10461;SDS011;5278;42.656;23.374;2023-07-20T06:00:20;8.77;;;4.32;;
10461;SDS011;5278;42.656;23.374;2023-07-20T06:02:51;5.25;;;3.70;;
10461;SDS011;5278;42.656;23.374;2023-07-20T06:05:18;7.18;;;4.00;;
10461;SDS011;5278;42.656;23.374;2023-07-20T06:07:47;7.90;;;3.78;;
10461;SDS011;5278;42.656;23.374;2023-07-20T06:10:13;8.63;;;4.25;;
10461;SDS011;5278;42.656;23.374;2023-07-20T06:12:41;6.03;;;3.47;;
10461;SDS011;5278;42.656;23.374;2023-07-20T06:15:23;6.15;;;3.60;;
10461;SDS011;5278;42.656;23.374;2023-07-20T06:17:53;10.38;;;4.15;;
10461;SDS011;5278;42.656;23.374;2023-07-20T06:20:23;6.43;;;3.28;;
10461;SDS011;5278;42.656;23.374;2023-07-20T06:22:52;8.63;;;4.15;;
10461;SDS011;5278;42.656;23.374;2023-07-20T06:25:19;11.18;;;4.20;;
10461;SDS011;5278;42.656;23.374;2023-07-20T06:27:48;7.15;;;3.80;;
10461;SDS011;5278;42.656;23.374;2023-07-20T06:30:16;6.95;;;4.30;;
10461;SDS011;5278;42.656;23.374;2023-07-20T06:32:43;7.47;;;4.32;;
10461;SDS011;5278;42.656;23.374;2023-07-20T06:35:10;9.30;;;4.38;;
10461;SDS011;5278;42.656;23.374;2023-07-20T06:37:37;12.85;;;4.20;;
10461;SDS011;5278;42.656;23.374;2023-07-20T06:40:07;7.63;;;4.07;;
10461;SDS011;5278;42.656;23.374;2023-07-20T06:42:35;8.98;;;3.70;;
10461;SDS011;5278;42.656;23.374;2023-07-20T06:45:02;8.60;;;3.80;;
10461;SDS011;5278;42.656;23.374;2023-07-20T06:47:30;7.30;;;3.42;;
10461;SDS011;5278;42.656;23.374;2023-07-20T06:49:57;6.53;;;4.15;;
10461;SDS011;5278;42.656;23.374;2023-07-20T06:52:24;8.52;;;4.00;;
10461;SDS011;5278;42.656;23.374;2023-07-20T06:54:50;8.68;;;4.50;;
10461;SDS011;5278;42.656;23.374;2023-07-20T06:57:19;9.98;;;4.53;;
10461;SDS011;5278;42.656;23.374;2023-07-20T06:59:46;6.45;;;4.22;;
10461;SDS011;5278;42.656;23.374;2023-07-20T07:02:13;9.55;;;4.47;;
10461;SDS011;5278;42.656;23.374;2023-07-20T07:04:41;8.82;;;4.07;;
10461;SDS011;5278;42.656;23.374;2023-07-20T07:07:08;9.73;;;4.55;;
10461;SDS011;5278;42.656;23.374;2023-07-20T07:09:37;7.78;;;4.70;;
10461;SDS011;5278;42.656;23.374;2023-07-20T07:12:04;8.57;;;4.35;;
10461;SDS011;5278;42.656;23.374;2023-07-20T07:14:35;9.77;;;4.80;;
10461;SDS011;5278;42.656;23.374;2023-07-20T07:17:02;8.00;;;4.72;;
10461;SDS011;5278;42.656;23.374;2023-07-20T07:19:29;12.13;;;4.90;;
10461;SDS011;5278;42.656;23.374;2023-07-20T07:21:57;9.70;;;5.65;;
10461;SDS011;5278;42.656;23.374;2023-07-20T07:24:24;11.93;;;5.03;;
10461;SDS011;5278;42.656;23.374;2023-07-20T07:26:53;7.45;;;4.65;;
10461;SDS011;5278;42.656;23.374;2023-07-20T07:29:20;8.65;;;5.10;;
10461;SDS011;5278;42.656;23.374;2023-07-20T07:31:48;12.13;;;4.90;;
10461;SDS011;5278;42.656;23.374;2023-07-20T07:34:15;9.15;;;4.55;;
10461;SDS011;5278;42.656;23.374;2023-07-20T07:36:42;10.90;;;4.85;;
10461;SDS011;5278;42.656;23.374;2023-07-20T07:39:10;9.10;;;5.00;;
10461;SDS011;5278;42.656;23.374;2023-07-20T07:41:37;9.93;;;4.53;;
10461;SDS011;5278;42.656;23.374;2023-07-20T07:44:04;8.30;;;4.45;;
10461;SDS011;5278;42.656;23.374;2023-07-20T07:46:31;10.52;;;5.07;;
10461;SDS011;5278;42.656;23.374;2023-07-20T07:49:00;11.45;;;4.85;;
10461;SDS011;5278;42.656;23.374;2023-07-20T07:51:27;9.77;;;4.63;;
10461;SDS011;5278;42.656;23.374;2023-07-20T07:53:54;14.90;;;4.68;;
10461;SDS011;5278;42.656;23.374;2023-07-20T07:56:21;7.65;;;4.55;;
10461;SDS011;5278;42.656;23.374;2023-07-20T07:58:47;9.93;;;4.55;;
10461;SDS011;5278;42.656;23.374;2023-07-20T08:01:16;9.35;;;4.72;;
10461;SDS011;5278;42.656;23.374;2023-07-20T08:03:44;10.15;;;4.72;;
10461;SDS011;5278;42.656;23.374;2023-07-20T08:06:14;5.88;;;4.05;;
10461;SDS011;5278;42.656;23.374;2023-07-20T08:08:41;9.02;;;4.22;;
10461;SDS011;5278;42.656;23.374;2023-07-20T08:11:09;14.10;;;4.97;;
10461;SDS011;5278;42.656;23.374;2023-07-20T08:13:36;10.00;;;4.70;;
10461;SDS011;5278;42.656;23.374;2023-07-20T08:16:03;11.45;;;4.72;;
10461;SDS011;5278;42.656;23.374;2023-07-20T08:18:30;7.85;;;4.13;;
10461;SDS011;5278;42.656;23.374;2023-07-20T08:20:57;10.45;;;5.05;;
10461;SDS011;5278;42.656;23.374;2023-07-20T08:23:26;5.72;;;4.70;;
10461;SDS011;5278;42.656;23.374;2023-07-20T08:25:53;14.75;;;4.57;;
10461;SDS011;5278;42.656;23.374;2023-07-20T08:28:20;13.10;;;4.35;;
10461;SDS011;5278;42.656;23.374;2023-07-20T08:30:47;7.80;;;4.15;;
10461;SDS011;5278;42.656;23.374;2023-07-20T08:33:17;9.32;;;4.32;;
10461;SDS011;5278;42.656;23.374;2023-07-20T08:35:45;6.55;;;3.78;;
10461;SDS011;5278;42.656;23.374;2023-07-20T08:38:13;7.85;;;4.15;;
10461;SDS011;5278;42.656;23.374;2023-07-20T08:40:42;9.07;;;3.83;;
10461;SDS011;5278;42.656;23.374;2023-07-20T08:43:10;6.50;;;3.20;;
10461;SDS011;5278;42.656;23.374;2023-07-20T08:45:38;7.72;;;3.85;;
10461;SDS011;5278;42.656;23.374;2023-07-20T08:48:06;7.00;;;3.38;;
10461;SDS011;5278;42.656;23.374;2023-07-20T08:50:34;7.55;;;3.10;;
10461;SDS011;5278;42.656;23.374;2023-07-20T08:53:02;4.63;;;3.17;;
10461;SDS011;5278;42.656;23.374;2023-07-20T08:55:30;8.52;;;3.38;;
10461;SDS011;5278;42.656;23.374;2023-07-20T08:57:58;11.95;;;3.70;;
10461;SDS011;5278;42.656;23.374;2023-07-20T09:00:28;9.05;;;3.75;;
10461;SDS011;5278;42.656;23.374;2023-07-20T09:02:55;6.68;;;3.72;;
10461;SDS011;5278;42.656;23.374;2023-07-20T09:05:25;8.55;;;3.10;;
10461;SDS011;5278;42.656;23.374;2023-07-20T09:07:52;6.05;;;3.58;;
10461;SDS011;5278;42.656;23.374;2023-07-20T09:10:22;6.60;;;4.00;;
10461;SDS011;5278;42.656;23.374;2023-07-20T09:12:50;6.55;;;3.78;;
10461;SDS011;5278;42.656;23.374;2023-07-20T09:15:18;6.63;;;3.10;;
10461;SDS011;5278;42.656;23.374;2023-07-20T09:17:46;6.60;;;3.47;;
10461;SDS011;5278;42.656;23.374;2023-07-20T09:20:15;9.43;;;3.67;;
10461;SDS011;5278;42.656;23.374;2023-07-20T09:22:42;6.05;;;3.45;;
10461;SDS011;5278;42.656;23.374;2023-07-20T09:25:11;7.28;;;3.53;;
10461;SDS011;5278;42.656;23.374;2023-07-20T09:27:39;4.72;;;2.97;;
10461;SDS011;5278;42.656;23.374;2023-07-20T09:30:07;6.57;;;3.47;;
10461;SDS011;5278;42.656;23.374;2023-07-20T09:32:40;9.70;;;3.47;;
10461;SDS011;5278;42.656;23.374;2023-07-20T09:35:12;9.85;;;4.22;;
10461;SDS011;5278;42.656;23.374;2023-07-20T09:37:49;7.47;;;3.00;;
10461;SDS011;5278;42.656;23.374;2023-07-20T09:40:19;6.53;;;3.67;;
10461;SDS011;5278;42.656;23.374;2023-07-20T09:42:47;7.90;;;3.15;;
10461;SDS011;5278;42.656;23.374;2023-07-20T09:45:14;6.95;;;3.33;;
10461;SDS011;5278;42.656;23.374;2023-07-20T09:47:43;6.63;;;3.33;;
10461;SDS011;5278;42.656;23.374;2023-07-20T09:50:15;10.10;;;2.83;;
10461;SDS011;5278;42.656;23.374;2023-07-20T09:52:42;7.10;;;3.40;;
10461;SDS011;5278;42.656;23.374;2023-07-20T09:55:10;6.25;;;3.08;;
10461;SDS011;5278;42.656;23.374;2023-07-20T09:57:39;6.35;;;3.58;;
10461;SDS011;5278;42.656;23.374;2023-07-20T10:00:07;5.95;;;3.20;;
10461;SDS011;5278;42.656;23.374;2023-07-20T10:02:41;7.00;;;3.63;;
10461;SDS011;5278;42.656;23.374;2023-07-20T10:05:11;4.82;;;3.10;;
10461;SDS011;5278;42.656;23.374;2023-07-20T10:07:43;7.25;;;3.10;;
10461;SDS011;5278;42.656;23.374;2023-07-20T10:10:13;10.88;;;2.80;;
10461;SDS011;5278;42.656;23.374;2023-07-20T10:12:42;9.20;;;3.97;;
10461;SDS011;5278;42.656;23.374;2023-07-20T10:15:15;6.20;;;3.03;;
10461;SDS011;5278;42.656;23.374;2023-07-20T10:17:49;6.50;;;2.85;;
10461;SDS011;5278;42.656;23.374;2023-07-20T10:20:24;6.78;;;3.13;;
10461;SDS011;5278;42.656;23.374;2023-07-20T10:22:53;5.97;;;2.90;;
10461;SDS011;5278;42.656;23.374;2023-07-20T10:25:21;6.95;;;2.83;;
10461;SDS011;5278;42.656;23.374;2023-07-20T10:27:49;5.15;;;2.75;;
10461;SDS011;5278;42.656;23.374;2023-07-20T10:30:16;7.88;;;3.15;;
10461;SDS011;5278;42.656;23.374;2023-07-20T10:32:44;6.00;;;3.00;;
10461;SDS011;5278;42.656;23.374;2023-07-20T10:35:14;8.15;;;3.03;;
10461;SDS011;5278;42.656;23.374;2023-07-20T10:37:51;6.93;;;2.85;;
10461;SDS011;5278;42.656;23.374;2023-07-20T10:43:08;6.03;;;3.38;;
10461;SDS011;5278;42.656;23.374;2023-07-20T10:45:36;10.13;;;4.95;;
10461;SDS011;5278;42.656;23.374;2023-07-20T10:48:16;4.45;;;2.67;;
10461;SDS011;5278;42.656;23.374;2023-07-20T10:50:46;7.95;;;3.15;;
10461;SDS011;5278;42.656;23.374;2023-07-20T10:53:38;9.75;;;3.08;;
10461;SDS011;5278;42.656;23.374;2023-07-20T10:56:06;9.35;;;7.32;;
10461;SDS011;5278;42.656;23.374;2023-07-20T10:58:35;4.18;;;2.80;;
10461;SDS011;5278;42.656;23.374;2023-07-20T11:01:03;6.95;;;2.97;;
10461;SDS011;5278;42.656;23.374;2023-07-20T11:03:32;5.05;;;3.22;;
10461;SDS011;5278;42.656;23.374;2023-07-20T11:06:01;6.10;;;3.00;;
10461;SDS011;5278;42.656;23.374;2023-07-20T11:09:04;9.32;;;3.08;;
10461;SDS011;5278;42.656;23.374;2023-07-20T11:11:39;6.85;;;2.70;;
10461;SDS011;5278;42.656;23.374;2023-07-20T11:14:08;7.82;;;3.22;;
10461;SDS011;5278;42.656;23.374;2023-07-20T11:16:40;8.60;;;3.38;;
10461;SDS011;5278;42.656;23.374;2023-07-20T11:19:16;5.57;;;3.30;;
10461;SDS011;5278;42.656;23.374;2023-07-20T11:21:46;4.68;;;2.92;;
10461;SDS011;5278;42.656;23.374;2023-07-20T11:24:16;7.00;;;3.28;;
10461;SDS011;5278;42.656;23.374;2023-07-20T11:26:43;6.57;;;3.20;;
10461;SDS011;5278;42.656;23.374;2023-07-20T11:29:11;8.05;;;3.67;;
10461;SDS011;5278;42.656;23.374;2023-07-20T11:31:38;10.20;;;3.78;;
10461;SDS011;5278;42.656;23.374;2023-07-20T11:34:10;9.73;;;6.40;;
10461;SDS011;5278;42.656;23.374;2023-07-20T11:36:39;9.77;;;4.45;;
10461;SDS011;5278;42.656;23.374;2023-07-20T11:39:09;5.28;;;3.60;;
10461;SDS011;5278;42.656;23.374;2023-07-20T11:41:36;6.95;;;3.88;;
10461;SDS011;5278;42.656;23.374;2023-07-20T11:44:05;7.80;;;4.18;;
10461;SDS011;5278;42.656;23.374;2023-07-20T11:46:32;7.75;;;3.45;;
10461;SDS011;5278;42.656;23.374;2023-07-20T11:49:00;5.15;;;3.50;;
10461;SDS011;5278;42.656;23.374;2023-07-20T11:51:27;8.82;;;3.75;;
10461;SDS011;5278;42.656;23.374;2023-07-20T11:53:54;7.63;;;3.90;;
10461;SDS011;5278;42.656;23.374;2023-07-20T11:56:24;6.90;;;4.03;;
10461;SDS011;5278;42.656;23.374;2023-07-20T11:58:54;10.27;;;5.18;;
10461;SDS011;5278;42.656;23.374;2023-07-20T12:01:24;8.07;;;4.20;;
10461;SDS011;5278;42.656;23.374;2023-07-20T12:03:54;8.43;;;4.47;;
10461;SDS011;5278;42.656;23.374;2023-07-20T12:06:22;9.02;;;4.78;;
10461;SDS011;5278;42.656;23.374;2023-07-20T12:08:50;5.28;;;4.03;;
10461;SDS011;5278;42.656;23.374;2023-07-20T12:11:36;6.90;;;4.55;;
10461;SDS011;5278;42.656;23.374;2023-07-20T12:14:03;7.60;;;4.70;;
10461;SDS011;5278;42.656;23.374;2023-07-20T12:16:33;8.75;;;4.75;;
10461;SDS011;5278;42.656;23.374;2023-07-20T12:19:01;8.55;;;4.13;;
10461;SDS011;5278;42.656;23.374;2023-07-20T12:21:29;5.95;;;4.30;;
10461;SDS011;5278;42.656;23.374;2023-07-20T12:23:57;10.90;;;4.75;;
10461;SDS011;5278;42.656;23.374;2023-07-20T12:26:25;8.13;;;3.85;;
10461;SDS011;5278;42.656;23.374;2023-07-20T12:28:57;4.70;;;3.97;;
10461;SDS011;5278;42.656;23.374;2023-07-20T12:31:24;9.07;;;3.78;;
10461;SDS011;5278;42.656;23.374;2023-07-20T12:33:52;6.93;;;3.90;;
10461;SDS011;5278;42.656;23.374;2023-07-20T12:36:20;9.38;;;3.78;;
10461;SDS011;5278;42.656;23.374;2023-07-20T12:38:47;4.68;;;3.28;;
10461;SDS011;5278;42.656;23.374;2023-07-20T12:41:15;7.32;;;3.35;;
10461;SDS011;5278;42.656;23.374;2023-07-20T12:43:43;5.40;;;3.20;;
10461;SDS011;5278;42.656;23.374;2023-07-20T12:46:14;7.13;;;3.50;;
10461;SDS011;5278;42.656;23.374;2023-07-20T12:48:42;4.13;;;3.25;;
10461;SDS011;5278;42.656;23.374;2023-07-20T12:51:09;6.65;;;3.42;;
10461;SDS011;5278;42.656;23.374;2023-07-20T12:53:37;7.70;;;3.85;;
10461;SDS011;5278;42.656;23.374;2023-07-20T12:56:04;6.57;;;3.40;;
10461;SDS011;5278;42.656;23.374;2023-07-20T12:58:31;5.93;;;3.78;;
10461;SDS011;5278;42.656;23.374;2023-07-20T13:00:58;8.75;;;3.63;;
10461;SDS011;5278;42.656;23.374;2023-07-20T13:03:27;6.28;;;3.70;;
10461;SDS011;5278;42.656;23.374;2023-07-20T13:05:54;7.82;;;3.67;;
10461;SDS011;5278;42.656;23.374;2023-07-20T13:08:21;7.63;;;3.95;;
10461;SDS011;5278;42.656;23.374;2023-07-20T13:10:50;10.45;;;3.63;;
10461;SDS011;5278;42.656;23.374;2023-07-20T13:13:18;6.07;;;3.00;;
10461;SDS011;5278;42.656;23.374;2023-07-20T13:15:45;8.85;;;3.40;;
10461;SDS011;5278;42.656;23.374;2023-07-20T13:18:13;8.82;;;3.95;;
10461;SDS011;5278;42.656;23.374;2023-07-20T13:20:42;6.57;;;3.40;;
10461;SDS011;5278;42.656;23.374;2023-07-20T13:23:09;6.22;;;3.55;;
10461;SDS011;5278;42.656;23.374;2023-07-20T13:25:36;6.82;;;3.58;;
10461;SDS011;5278;42.656;23.374;2023-07-20T13:28:03;5.50;;;3.55;;
10461;SDS011;5278;42.656;23.374;2023-07-20T13:30:31;4.07;;;3.25;;
10461;SDS011;5278;42.656;23.374;2023-07-20T13:32:58;5.60;;;3.25;;
10461;SDS011;5278;42.656;23.374;2023-07-20T13:35:25;8.60;;;3.33;;
10461;SDS011;5278;42.656;23.374;2023-07-20T13:37:54;5.63;;;2.83;;
10461;SDS011;5278;42.656;23.374;2023-07-20T13:40:21;7.15;;;3.28;;
10461;SDS011;5278;42.656;23.374;2023-07-20T13:42:48;11.52;;;2.97;;
10461;SDS011;5278;42.656;23.374;2023-07-20T13:45:15;8.52;;;3.53;;
10461;SDS011;5278;42.656;23.374;2023-07-20T13:47:42;8.85;;;3.50;;
10461;SDS011;5278;42.656;23.374;2023-07-20T13:50:10;7.03;;;3.00;;
10461;SDS011;5278;42.656;23.374;2023-07-20T13:52:38;8.50;;;3.25;;
10461;SDS011;5278;42.656;23.374;2023-07-20T13:55:09;5.82;;;3.28;;
10461;SDS011;5278;42.656;23.374;2023-07-20T13:57:37;5.22;;;3.30;;
10461;SDS011;5278;42.656;23.374;2023-07-20T14:00:05;7.05;;;3.72;;
10461;SDS011;5278;42.656;23.374;2023-07-20T14:02:36;6.40;;;2.90;;
10461;SDS011;5278;42.656;23.374;2023-07-20T14:05:03;6.63;;;3.05;;
10461;SDS011;5278;42.656;23.374;2023-07-20T14:07:30;5.70;;;3.35;;
10461;SDS011;5278;42.656;23.374;2023-07-20T14:09:58;8.63;;;3.70;;
10461;SDS011;5278;42.656;23.374;2023-07-20T14:12:26;9.68;;;3.15;;
10461;SDS011;5278;42.656;23.374;2023-07-20T14:14:53;9.93;;;4.47;;
10461;SDS011;5278;42.656;23.374;2023-07-20T14:17:20;5.45;;;3.33;;
10461;SDS011;5278;42.656;23.374;2023-07-20T14:19:47;9.98;;;4.13;;
10461;SDS011;5278;42.656;23.374;2023-07-20T14:22:16;8.18;;;3.10;;
10461;SDS011;5278;42.656;23.374;2023-07-20T14:24:43;6.32;;;3.10;;
10461;SDS011;5278;42.656;23.374;2023-07-20T14:27:09;10.02;;;3.70;;
10461;SDS011;5278;42.656;23.374;2023-07-20T14:29:38;7.45;;;5.25;;
10461;SDS011;5278;42.656;23.374;2023-07-20T14:32:05;8.95;;;4.22;;
10461;SDS011;5278;42.656;23.374;2023-07-20T14:34:33;8.13;;;3.92;;
10461;SDS011;5278;42.656;23.374;2023-07-20T14:37:00;6.68;;;4.32;;
10461;SDS011;5278;42.656;23.374;2023-07-20T14:39:29;6.22;;;2.90;;
10461;SDS011;5278;42.656;23.374;2023-07-20T14:41:56;6.50;;;3.00;;
10461;SDS011;5278;42.656;23.374;2023-07-20T14:44:27;9.97;;;3.10;;
10461;SDS011;5278;42.656;23.374;2023-07-20T14:46:56;6.43;;;3.42;;
10461;SDS011;5278;42.656;23.374;2023-07-20T14:49:25;8.03;;;3.80;;
10461;SDS011;5278;42.656;23.374;2023-07-20T14:51:52;7.87;;;3.80;;
10461;SDS011;5278;42.656;23.374;2023-07-20T14:54:19;7.43;;;3.57;;
10461;SDS011;5278;42.656;23.374;2023-07-20T14:56:48;5.40;;;3.35;;